sensor_id;sensor_type;location;lat;lon;timestamp;P1;durP1;ratioP1;P2;durP2;ratioP2
12332;SDS011;6232;48.094;11.288;2023-05-20T00:00:46;6.23;;;5.63;;
12332;SDS011;6232;48.094;11.288;2023-05-20T00:03:34;6.13;;;5.60;;
12332;SDS011;6232;48.094;11.288;2023-05-20T00:06:20;8.50;;;6.10;;
12332;SDS011;6232;48.094;11.288;2023-05-20T00:09:05;7.20;;;6.10;;
12332;SDS011;6232;48.094;11.288;2023-05-20T00:11:51;7.63;;;5.60;;
12332;SDS011;6232;48.094;11.288;2023-05-20T00:21:43;7.17;;;5.43;;
12332;SDS011;6232;48.094;11.288;2023-05-20T00:24:32;7.07;;;5.90;;
12332;SDS011;6232;48.094;11.288;2023-05-20T00:27:17;6.67;;;6.00;;
12332;SDS011;6232;48.094;11.288;2023-05-20T00:30:03;11.83;;;6.70;;
12332;SDS011;6232;48.094;11.288;2023-05-20T00:32:49;8.40;;;6.50;;
12332;SDS011;6232;48.094;11.288;2023-05-20T00:35:34;10.90;;;5.50;;
12332;SDS011;6232;48.094;11.288;2023-05-20T00:38:20;7.40;;;5.57;;
12332;SDS011;6232;48.094;11.288;2023-05-20T00:41:06;8.03;;;5.83;;
12332;SDS011;6232;48.094;11.288;2023-05-20T00:43:52;6.30;;;5.60;;
12332;SDS011;6232;48.094;11.288;2023-05-20T00:46:38;8.40;;;6.30;;
12332;SDS011;6232;48.094;11.288;2023-05-20T00:49:23;7.53;;;6.50;;
12332;SDS011;6232;48.094;11.288;2023-05-20T00:52:09;6.40;;;5.80;;
12332;SDS011;6232;48.094;11.288;2023-05-20T00:54:55;9.50;;;5.80;;
12332;SDS011;6232;48.094;11.288;2023-05-20T00:57:41;7.10;;;6.50;;
12332;SDS011;6232;48.094;11.288;2023-05-20T01:00:27;15.80;;;5.97;;
12332;SDS011;6232;48.094;11.288;2023-05-20T01:03:13;12.73;;;5.20;;
12332;SDS011;6232;48.094;11.288;2023-05-20T01:05:58;7.03;;;6.33;;
12332;SDS011;6232;48.094;11.288;2023-05-20T01:08:44;7.30;;;6.37;;
12332;SDS011;6232;48.094;11.288;2023-05-20T01:11:32;7.27;;;6.17;;
12332;SDS011;6232;48.094;11.288;2023-05-20T01:14:18;6.40;;;5.57;;
12332;SDS011;6232;48.094;11.288;2023-05-20T01:17:06;6.37;;;5.70;;
12332;SDS011;6232;48.094;11.288;2023-05-20T01:19:55;7.97;;;6.07;;
12332;SDS011;6232;48.094;11.288;2023-05-20T01:22:52;6.17;;;5.57;;
12332;SDS011;6232;48.094;11.288;2023-05-20T01:25:37;7.33;;;6.63;;
12332;SDS011;6232;48.094;11.288;2023-05-20T01:28:23;6.37;;;5.77;;
12332;SDS011;6232;48.094;11.288;2023-05-20T01:31:10;6.80;;;5.70;;
12332;SDS011;6232;48.094;11.288;2023-05-20T01:33:56;6.60;;;5.60;;
12332;SDS011;6232;48.094;11.288;2023-05-20T01:36:42;7.60;;;5.30;;
12332;SDS011;6232;48.094;11.288;2023-05-20T01:39:28;6.47;;;5.70;;
12332;SDS011;6232;48.094;11.288;2023-05-20T01:42:15;9.90;;;6.80;;
12332;SDS011;6232;48.094;11.288;2023-05-20T01:45:01;11.10;;;5.90;;
12332;SDS011;6232;48.094;11.288;2023-05-20T01:47:48;14.73;;;6.33;;
12332;SDS011;6232;48.094;11.288;2023-05-20T01:50:34;6.60;;;5.90;;
12332;SDS011;6232;48.094;11.288;2023-05-20T01:53:19;7.90;;;5.83;;
12332;SDS011;6232;48.094;11.288;2023-05-20T01:56:05;11.20;;;6.30;;
12332;SDS011;6232;48.094;11.288;2023-05-20T01:58:50;9.30;;;6.20;;
12332;SDS011;6232;48.094;11.288;2023-05-20T02:01:36;6.47;;;5.87;;
12332;SDS011;6232;48.094;11.288;2023-05-20T02:04:21;7.47;;;6.30;;
12332;SDS011;6232;48.094;11.288;2023-05-20T02:07:07;14.60;;;7.50;;
12332;SDS011;6232;48.094;11.288;2023-05-20T02:09:53;6.93;;;6.33;;
12332;SDS011;6232;48.094;11.288;2023-05-20T02:12:38;7.83;;;6.03;;
12332;SDS011;6232;48.094;11.288;2023-05-20T02:15:24;6.70;;;6.00;;
12332;SDS011;6232;48.094;11.288;2023-05-20T02:18:09;7.20;;;5.80;;
12332;SDS011;6232;48.094;11.288;2023-05-20T02:21:00;8.50;;;6.80;;
12332;SDS011;6232;48.094;11.288;2023-05-20T02:23:46;7.30;;;6.60;;
12332;SDS011;6232;48.094;11.288;2023-05-20T02:26:32;10.53;;;6.70;;
12332;SDS011;6232;48.094;11.288;2023-05-20T02:29:18;7.80;;;7.00;;
12332;SDS011;6232;48.094;11.288;2023-05-20T02:32:06;8.10;;;6.50;;
12332;SDS011;6232;48.094;11.288;2023-05-20T02:34:51;20.53;;;7.90;;
12332;SDS011;6232;48.094;11.288;2023-05-20T02:37:37;9.77;;;6.70;;
12332;SDS011;6232;48.094;11.288;2023-05-20T02:40:23;10.13;;;6.50;;
12332;SDS011;6232;48.094;11.288;2023-05-20T02:43:09;8.20;;;7.23;;
12332;SDS011;6232;48.094;11.288;2023-05-20T02:45:54;7.90;;;7.03;;
12332;SDS011;6232;48.094;11.288;2023-05-20T02:48:40;9.87;;;7.30;;
12332;SDS011;6232;48.094;11.288;2023-05-20T02:51:26;8.50;;;7.20;;
12332;SDS011;6232;48.094;11.288;2023-05-20T02:54:11;7.60;;;6.70;;
12332;SDS011;6232;48.094;11.288;2023-05-20T02:56:57;10.87;;;7.60;;
12332;SDS011;6232;48.094;11.288;2023-05-20T02:59:42;9.17;;;7.00;;
12332;SDS011;6232;48.094;11.288;2023-05-20T03:02:28;7.77;;;6.97;;
12332;SDS011;6232;48.094;11.288;2023-05-20T03:05:14;7.83;;;7.03;;
12332;SDS011;6232;48.094;11.288;2023-05-20T03:07:59;8.70;;;7.80;;
12332;SDS011;6232;48.094;11.288;2023-05-20T03:10:45;10.00;;;7.87;;
12332;SDS011;6232;48.094;11.288;2023-05-20T03:13:31;8.13;;;7.33;;
12332;SDS011;6232;48.094;11.288;2023-05-20T03:16:16;14.47;;;11.63;;
12332;SDS011;6232;48.094;11.288;2023-05-20T03:19:03;8.90;;;7.87;;
12332;SDS011;6232;48.094;11.288;2023-05-20T03:21:48;16.63;;;8.00;;
12332;SDS011;6232;48.094;11.288;2023-05-20T03:24:34;11.60;;;8.77;;
12332;SDS011;6232;48.094;11.288;2023-05-20T03:27:20;11.47;;;8.47;;
12332;SDS011;6232;48.094;11.288;2023-05-20T03:30:06;11.83;;;8.47;;
12332;SDS011;6232;48.094;11.288;2023-05-20T03:32:52;10.40;;;8.70;;
12332;SDS011;6232;48.094;11.288;2023-05-20T03:35:38;11.23;;;8.47;;
12332;SDS011;6232;48.094;11.288;2023-05-20T03:38:23;11.13;;;8.10;;
12332;SDS011;6232;48.094;11.288;2023-05-20T03:41:09;9.00;;;8.10;;
12332;SDS011;6232;48.094;11.288;2023-05-20T03:43:55;8.30;;;7.50;;
12332;SDS011;6232;48.094;11.288;2023-05-20T03:46:40;11.90;;;8.30;;
12332;SDS011;6232;48.094;11.288;2023-05-20T03:49:26;15.63;;;9.07;;
12332;SDS011;6232;48.094;11.288;2023-05-20T03:52:11;13.17;;;8.43;;
12332;SDS011;6232;48.094;11.288;2023-05-20T03:54:57;9.60;;;8.60;;
12332;SDS011;6232;48.094;11.288;2023-05-20T03:57:42;14.47;;;8.97;;
12332;SDS011;6232;48.094;11.288;2023-05-20T04:00:28;10.90;;;8.80;;
12332;SDS011;6232;48.094;11.288;2023-05-20T04:03:15;16.63;;;9.77;;
12332;SDS011;6232;48.094;11.288;2023-05-20T04:06:01;11.80;;;9.80;;
12332;SDS011;6232;48.094;11.288;2023-05-20T04:08:46;11.10;;;9.10;;
12332;SDS011;6232;48.094;11.288;2023-05-20T04:11:33;14.30;;;10.47;;
12332;SDS011;6232;48.094;11.288;2023-05-20T04:14:19;11.47;;;9.80;;
12332;SDS011;6232;48.094;11.288;2023-05-20T04:17:04;11.60;;;9.83;;
12332;SDS011;6232;48.094;11.288;2023-05-20T04:19:50;12.70;;;9.77;;
12332;SDS011;6232;48.094;11.288;2023-05-20T04:22:36;11.33;;;10.03;;
12332;SDS011;6232;48.094;11.288;2023-05-20T04:25:21;20.40;;;11.20;;
12332;SDS011;6232;48.094;11.288;2023-05-20T04:28:08;13.30;;;11.33;;
12332;SDS011;6232;48.094;11.288;2023-05-20T04:31:00;14.73;;;11.37;;
12332;SDS011;6232;48.094;11.288;2023-05-20T04:33:49;13.23;;;10.57;;
12332;SDS011;6232;48.094;11.288;2023-05-20T04:36:36;16.67;;;10.70;;
12332;SDS011;6232;48.094;11.288;2023-05-20T04:39:22;13.43;;;10.63;;
12332;SDS011;6232;48.094;11.288;2023-05-20T04:42:08;13.83;;;9.97;;
12332;SDS011;6232;48.094;11.288;2023-05-20T04:44:54;24.30;;;15.60;;
12332;SDS011;6232;48.094;11.288;2023-05-20T04:47:39;18.27;;;13.00;;
12332;SDS011;6232;48.094;11.288;2023-05-20T04:50:26;15.07;;;11.73;;
12332;SDS011;6232;48.094;11.288;2023-05-20T04:53:11;19.20;;;13.57;;
12332;SDS011;6232;48.094;11.288;2023-05-20T04:55:57;16.00;;;12.00;;
12332;SDS011;6232;48.094;11.288;2023-05-20T04:58:42;17.87;;;11.83;;
12332;SDS011;6232;48.094;11.288;2023-05-20T05:01:28;20.30;;;11.30;;
12332;SDS011;6232;48.094;11.288;2023-05-20T05:04:14;16.77;;;12.20;;
12332;SDS011;6232;48.094;11.288;2023-05-20T05:06:59;19.83;;;12.57;;
12332;SDS011;6232;48.094;11.288;2023-05-20T05:09:45;20.93;;;13.33;;
12332;SDS011;6232;48.094;11.288;2023-05-20T05:12:30;30.03;;;13.77;;
12332;SDS011;6232;48.094;11.288;2023-05-20T05:15:16;20.57;;;13.60;;
12332;SDS011;6232;48.094;11.288;2023-05-20T05:18:02;23.07;;;13.67;;
12332;SDS011;6232;48.094;11.288;2023-05-20T05:20:47;25.10;;;13.70;;
12332;SDS011;6232;48.094;11.288;2023-05-20T05:23:33;18.73;;;12.90;;
12332;SDS011;6232;48.094;11.288;2023-05-20T05:26:18;19.30;;;13.30;;
12332;SDS011;6232;48.094;11.288;2023-05-20T05:29:04;17.13;;;13.20;;
12332;SDS011;6232;48.094;11.288;2023-05-20T05:31:49;20.73;;;13.93;;
12332;SDS011;6232;48.094;11.288;2023-05-20T05:34:35;20.70;;;13.60;;
12332;SDS011;6232;48.094;11.288;2023-05-20T05:37:20;20.40;;;13.20;;
12332;SDS011;6232;48.094;11.288;2023-05-20T05:40:06;20.37;;;13.00;;
12332;SDS011;6232;48.094;11.288;2023-05-20T05:42:52;18.43;;;13.20;;
12332;SDS011;6232;48.094;11.288;2023-05-20T05:45:38;19.80;;;12.50;;
12332;SDS011;6232;48.094;11.288;2023-05-20T05:48:23;22.93;;;18.27;;
12332;SDS011;6232;48.094;11.288;2023-05-20T05:51:09;25.00;;;18.30;;
12332;SDS011;6232;48.094;11.288;2023-05-20T05:53:54;22.03;;;15.00;;
12332;SDS011;6232;48.094;11.288;2023-05-20T05:56:40;18.67;;;14.37;;
12332;SDS011;6232;48.094;11.288;2023-05-20T05:59:25;21.57;;;15.70;;
12332;SDS011;6232;48.094;11.288;2023-05-20T06:02:11;18.40;;;11.80;;
12332;SDS011;6232;48.094;11.288;2023-05-20T06:04:58;18.33;;;12.10;;
12332;SDS011;6232;48.094;11.288;2023-05-20T06:07:44;23.17;;;12.33;;
12332;SDS011;6232;48.094;11.288;2023-05-20T06:10:29;17.97;;;12.60;;
12332;SDS011;6232;48.094;11.288;2023-05-20T06:13:15;16.90;;;12.70;;
12332;SDS011;6232;48.094;11.288;2023-05-20T06:16:01;15.40;;;12.37;;
12332;SDS011;6232;48.094;11.288;2023-05-20T06:18:47;14.93;;;10.60;;
12332;SDS011;6232;48.094;11.288;2023-05-20T06:21:34;15.33;;;10.37;;
12332;SDS011;6232;48.094;11.288;2023-05-20T06:24:20;16.00;;;12.30;;
12332;SDS011;6232;48.094;11.288;2023-05-20T06:27:06;17.37;;;11.13;;
12332;SDS011;6232;48.094;11.288;2023-05-20T06:29:51;16.17;;;11.57;;
12332;SDS011;6232;48.094;11.288;2023-05-20T06:32:37;13.90;;;10.87;;
12332;SDS011;6232;48.094;11.288;2023-05-20T06:35:23;14.07;;;11.27;;
12332;SDS011;6232;48.094;11.288;2023-05-20T06:38:08;16.10;;;11.60;;
12332;SDS011;6232;48.094;11.288;2023-05-20T06:40:54;17.10;;;10.73;;
12332;SDS011;6232;48.094;11.288;2023-05-20T06:43:39;17.80;;;11.60;;
12332;SDS011;6232;48.094;11.288;2023-05-20T06:46:25;14.47;;;11.33;;
12332;SDS011;6232;48.094;11.288;2023-05-20T06:49:10;13.80;;;10.53;;
12332;SDS011;6232;48.094;11.288;2023-05-20T06:51:56;16.23;;;10.80;;
12332;SDS011;6232;48.094;11.288;2023-05-20T06:54:41;14.37;;;10.33;;
12332;SDS011;6232;48.094;11.288;2023-05-20T06:57:27;15.33;;;11.10;;
12332;SDS011;6232;48.094;11.288;2023-05-20T07:00:13;15.83;;;11.50;;
12332;SDS011;6232;48.094;11.288;2023-05-20T07:02:58;17.57;;;10.87;;
12332;SDS011;6232;48.094;11.288;2023-05-20T07:05:44;14.87;;;10.50;;
12332;SDS011;6232;48.094;11.288;2023-05-20T07:08:30;18.50;;;11.10;;
12332;SDS011;6232;48.094;11.288;2023-05-20T07:11:15;13.80;;;10.60;;
12332;SDS011;6232;48.094;11.288;2023-05-20T07:14:01;12.93;;;10.33;;
12332;SDS011;6232;48.094;11.288;2023-05-20T07:16:46;13.77;;;10.53;;
12332;SDS011;6232;48.094;11.288;2023-05-20T07:19:32;13.53;;;10.30;;
12332;SDS011;6232;48.094;11.288;2023-05-20T07:22:18;12.67;;;9.90;;
12332;SDS011;6232;48.094;11.288;2023-05-20T07:25:03;13.90;;;11.50;;
12332;SDS011;6232;48.094;11.288;2023-05-20T07:27:49;17.27;;;11.23;;
12332;SDS011;6232;48.094;11.288;2023-05-20T07:30:34;11.93;;;10.73;;
12332;SDS011;6232;48.094;11.288;2023-05-20T07:33:20;15.53;;;10.47;;
12332;SDS011;6232;48.094;11.288;2023-05-20T07:36:05;15.77;;;10.90;;
12332;SDS011;6232;48.094;11.288;2023-05-20T07:38:51;17.80;;;10.63;;
12332;SDS011;6232;48.094;11.288;2023-05-20T07:41:37;13.03;;;10.50;;
12332;SDS011;6232;48.094;11.288;2023-05-20T07:44:22;15.40;;;10.47;;
12332;SDS011;6232;48.094;11.288;2023-05-20T07:47:08;14.97;;;11.07;;
12332;SDS011;6232;48.094;11.288;2023-05-20T07:49:54;11.90;;;9.73;;
12332;SDS011;6232;48.094;11.288;2023-05-20T07:52:39;15.60;;;10.20;;
12332;SDS011;6232;48.094;11.288;2023-05-20T07:55:25;11.87;;;9.40;;
12332;SDS011;6232;48.094;11.288;2023-05-20T07:58:10;15.30;;;11.07;;
12332;SDS011;6232;48.094;11.288;2023-05-20T08:00:56;17.63;;;11.43;;
12332;SDS011;6232;48.094;11.288;2023-05-20T08:03:42;12.10;;;10.17;;
12332;SDS011;6232;48.094;11.288;2023-05-20T08:06:27;17.27;;;10.80;;
12332;SDS011;6232;48.094;11.288;2023-05-20T08:09:13;14.10;;;10.33;;
12332;SDS011;6232;48.094;11.288;2023-05-20T08:11:58;11.30;;;9.70;;
12332;SDS011;6232;48.094;11.288;2023-05-20T08:14:44;14.97;;;11.33;;
12332;SDS011;6232;48.094;11.288;2023-05-20T08:17:31;15.50;;;10.43;;
12332;SDS011;6232;48.094;11.288;2023-05-20T08:20:16;12.43;;;9.60;;
12332;SDS011;6232;48.094;11.288;2023-05-20T08:23:02;14.77;;;10.70;;
12332;SDS011;6232;48.094;11.288;2023-05-20T08:25:48;12.27;;;9.63;;
12332;SDS011;6232;48.094;11.288;2023-05-20T08:28:33;11.20;;;10.00;;
12332;SDS011;6232;48.094;11.288;2023-05-20T08:31:21;16.03;;;11.47;;
12332;SDS011;6232;48.094;11.288;2023-05-20T08:34:06;12.00;;;10.23;;
12332;SDS011;6232;48.094;11.288;2023-05-20T08:36:52;12.43;;;10.20;;
12332;SDS011;6232;48.094;11.288;2023-05-20T08:39:38;14.43;;;10.63;;
12332;SDS011;6232;48.094;11.288;2023-05-20T08:42:23;15.70;;;9.83;;
12332;SDS011;6232;48.094;11.288;2023-05-20T08:45:09;13.17;;;10.03;;
12332;SDS011;6232;48.094;11.288;2023-05-20T08:47:55;11.47;;;9.97;;
12332;SDS011;6232;48.094;11.288;2023-05-20T08:50:42;11.57;;;10.00;;
12332;SDS011;6232;48.094;11.288;2023-05-20T08:53:28;11.43;;;9.57;;
12332;SDS011;6232;48.094;11.288;2023-05-20T08:56:14;13.40;;;8.90;;
12332;SDS011;6232;48.094;11.288;2023-05-20T08:59:00;12.60;;;9.30;;
12332;SDS011;6232;48.094;11.288;2023-05-20T09:01:46;14.07;;;10.40;;
12332;SDS011;6232;48.094;11.288;2023-05-20T09:04:31;12.13;;;9.70;;
12332;SDS011;6232;48.094;11.288;2023-05-20T09:07:26;13.00;;;9.50;;
12332;SDS011;6232;48.094;11.288;2023-05-20T09:10:12;11.73;;;10.30;;
12332;SDS011;6232;48.094;11.288;2023-05-20T09:12:59;11.53;;;8.93;;
12332;SDS011;6232;48.094;11.288;2023-05-20T09:15:44;11.07;;;8.60;;
12332;SDS011;6232;48.094;11.288;2023-05-20T09:18:30;13.13;;;10.10;;
12332;SDS011;6232;48.094;11.288;2023-05-20T09:21:16;14.90;;;9.20;;
12332;SDS011;6232;48.094;11.288;2023-05-20T09:24:01;11.67;;;9.50;;
12332;SDS011;6232;48.094;11.288;2023-05-20T09:26:47;9.87;;;8.87;;
12332;SDS011;6232;48.094;11.288;2023-05-20T09:29:33;9.63;;;8.70;;
12332;SDS011;6232;48.094;11.288;2023-05-20T09:32:19;11.63;;;9.10;;
12332;SDS011;6232;48.094;11.288;2023-05-20T09:35:05;12.57;;;8.40;;
12332;SDS011;6232;48.094;11.288;2023-05-20T09:37:55;9.27;;;8.33;;
12332;SDS011;6232;48.094;11.288;2023-05-20T09:40:41;8.90;;;8.00;;
12332;SDS011;6232;48.094;11.288;2023-05-20T09:43:28;8.87;;;7.87;;
12332;SDS011;6232;48.094;11.288;2023-05-20T09:46:13;8.27;;;7.47;;
12332;SDS011;6232;48.094;11.288;2023-05-20T09:48:59;8.27;;;7.50;;
12332;SDS011;6232;48.094;11.288;2023-05-20T09:51:45;8.77;;;7.20;;
12332;SDS011;6232;48.094;11.288;2023-05-20T09:54:32;9.03;;;7.27;;
12332;SDS011;6232;48.094;11.288;2023-05-20T09:57:18;7.67;;;6.23;;
12332;SDS011;6232;48.094;11.288;2023-05-20T10:00:04;7.20;;;6.50;;
12332;SDS011;6232;48.094;11.288;2023-05-20T10:02:50;6.00;;;5.50;;
12332;SDS011;6232;48.094;11.288;2023-05-20T10:05:38;6.93;;;6.23;;
12332;SDS011;6232;48.094;11.288;2023-05-20T10:11:26;9.10;;;6.90;;
12332;SDS011;6232;48.094;11.288;2023-05-20T10:20:02;8.10;;;6.63;;
12332;SDS011;6232;48.094;11.288;2023-05-20T10:22:55;7.53;;;5.80;;
12332;SDS011;6232;48.094;11.288;2023-05-20T10:25:48;5.87;;;5.27;;
12332;SDS011;6232;48.094;11.288;2023-05-20T10:28:34;6.60;;;6.00;;
12332;SDS011;6232;48.094;11.288;2023-05-20T10:31:21;5.60;;;5.03;;
12332;SDS011;6232;48.094;11.288;2023-05-20T10:34:13;5.67;;;4.90;;
12332;SDS011;6232;48.094;11.288;2023-05-20T10:36:58;6.87;;;5.30;;
12332;SDS011;6232;48.094;11.288;2023-05-20T10:39:44;5.90;;;5.40;;
12332;SDS011;6232;48.094;11.288;2023-05-20T10:42:30;5.27;;;4.70;;
12332;SDS011;6232;48.094;11.288;2023-05-20T10:45:25;4.87;;;3.83;;
12332;SDS011;6232;48.094;11.288;2023-05-20T10:48:18;4.87;;;4.40;;
12332;SDS011;6232;48.094;11.288;2023-05-20T10:51:09;7.57;;;4.40;;
12332;SDS011;6232;48.094;11.288;2023-05-20T10:53:55;4.27;;;3.87;;
12332;SDS011;6232;48.094;11.288;2023-05-20T10:56:49;4.10;;;3.70;;
12332;SDS011;6232;48.094;11.288;2023-05-20T10:59:35;3.97;;;3.63;;
12332;SDS011;6232;48.094;11.288;2023-05-20T11:02:21;4.87;;;3.63;;
12332;SDS011;6232;48.094;11.288;2023-05-20T11:05:13;3.37;;;3.00;;
12332;SDS011;6232;48.094;11.288;2023-05-20T11:08:01;3.33;;;3.00;;
12332;SDS011;6232;48.094;11.288;2023-05-20T11:10:47;3.43;;;3.10;;
12332;SDS011;6232;48.094;11.288;2023-05-20T11:13:33;3.50;;;3.20;;
12332;SDS011;6232;48.094;11.288;2023-05-20T11:16:19;8.10;;;3.53;;
12332;SDS011;6232;48.094;11.288;2023-05-20T11:19:13;4.10;;;3.70;;
12332;SDS011;6232;48.094;11.288;2023-05-20T11:21:59;5.07;;;3.57;;
12332;SDS011;6232;48.094;11.288;2023-05-20T11:24:45;4.17;;;2.77;;
12332;SDS011;6232;48.094;11.288;2023-05-20T11:27:30;4.63;;;3.30;;
12332;SDS011;6232;48.094;11.288;2023-05-20T11:30:16;2.97;;;2.67;;
12332;SDS011;6232;48.094;11.288;2023-05-20T11:33:03;4.33;;;3.40;;
12332;SDS011;6232;48.094;11.288;2023-05-20T11:35:50;5.23;;;2.97;;
12332;SDS011;6232;48.094;11.288;2023-05-20T11:38:35;3.30;;;3.00;;
12332;SDS011;6232;48.094;11.288;2023-05-20T11:41:27;3.17;;;2.80;;
12332;SDS011;6232;48.094;11.288;2023-05-20T11:44:13;10.60;;;2.47;;
12332;SDS011;6232;48.094;11.288;2023-05-20T11:46:59;4.00;;;3.50;;
12332;SDS011;6232;48.094;11.288;2023-05-20T11:49:46;2.87;;;2.67;;
12332;SDS011;6232;48.094;11.288;2023-05-20T11:52:33;2.67;;;2.20;;
12332;SDS011;6232;48.094;11.288;2023-05-20T11:55:19;2.50;;;2.30;;
12332;SDS011;6232;48.094;11.288;2023-05-20T11:58:04;2.67;;;2.13;;
12332;SDS011;6232;48.094;11.288;2023-05-20T12:00:50;2.37;;;2.10;;
12332;SDS011;6232;48.094;11.288;2023-05-20T12:03:35;2.83;;;1.93;;
12332;SDS011;6232;48.094;11.288;2023-05-20T12:06:21;2.50;;;2.30;;
12332;SDS011;6232;48.094;11.288;2023-05-20T12:09:07;2.60;;;2.33;;
12332;SDS011;6232;48.094;11.288;2023-05-20T12:11:53;2.53;;;2.30;;
12332;SDS011;6232;48.094;11.288;2023-05-20T12:14:40;2.42;;;2.20;;
12332;SDS011;6232;48.094;11.288;2023-05-20T12:17:26;2.33;;;2.13;;
12332;SDS011;6232;48.094;11.288;2023-05-20T12:20:12;2.50;;;2.30;;
12332;SDS011;6232;48.094;11.288;2023-05-20T12:22:59;2.92;;;2.40;;
12332;SDS011;6232;48.094;11.288;2023-05-20T12:25:44;2.55;;;2.35;;
12332;SDS011;6232;48.094;11.288;2023-05-20T12:28:31;6.25;;;2.47;;
12332;SDS011;6232;48.094;11.288;2023-05-20T12:31:17;4.82;;;4.43;;
12332;SDS011;6232;48.094;11.288;2023-05-20T12:34:03;2.70;;;2.50;;
12332;SDS011;6232;48.094;11.288;2023-05-20T12:36:48;4.90;;;4.37;;
12332;SDS011;6232;48.094;11.288;2023-05-20T12:39:34;2.55;;;2.35;;
12332;SDS011;6232;48.094;11.288;2023-05-20T12:42:20;2.60;;;2.40;;
12332;SDS011;6232;48.094;11.288;2023-05-20T12:45:06;7.57;;;2.60;;
12332;SDS011;6232;48.094;11.288;2023-05-20T12:47:53;2.00;;;1.90;;
12332;SDS011;6232;48.094;11.288;2023-05-20T12:50:38;2.10;;;1.90;;
12332;SDS011;6232;48.094;11.288;2023-05-20T12:53:24;3.33;;;2.80;;
12332;SDS011;6232;48.094;11.288;2023-05-20T12:56:09;3.67;;;2.20;;
12332;SDS011;6232;48.094;11.288;2023-05-20T12:58:55;2.97;;;2.10;;
12332;SDS011;6232;48.094;11.288;2023-05-20T13:01:42;2.63;;;2.30;;
12332;SDS011;6232;48.094;11.288;2023-05-20T13:04:27;5.97;;;2.50;;
12332;SDS011;6232;48.094;11.288;2023-05-20T13:07:13;7.50;;;2.70;;
12332;SDS011;6232;48.094;11.288;2023-05-20T13:09:58;4.35;;;2.30;;
12332;SDS011;6232;48.094;11.288;2023-05-20T13:12:44;2.22;;;2.10;;
12332;SDS011;6232;48.094;11.288;2023-05-20T13:15:32;5.45;;;2.47;;
12332;SDS011;6232;48.094;11.288;2023-05-20T13:18:18;2.78;;;2.40;;
12332;SDS011;6232;48.094;11.288;2023-05-20T13:21:04;3.80;;;2.97;;
12332;SDS011;6232;48.094;11.288;2023-05-20T13:23:49;2.53;;;2.33;;
12332;SDS011;6232;48.094;11.288;2023-05-20T13:26:35;8.63;;;3.13;;
12332;SDS011;6232;48.094;11.288;2023-05-20T13:29:20;2.92;;;2.35;;
12332;SDS011;6232;48.094;11.288;2023-05-20T13:32:06;3.47;;;2.90;;
12332;SDS011;6232;48.094;11.288;2023-05-20T13:34:51;2.63;;;2.38;;
12332;SDS011;6232;48.094;11.288;2023-05-20T13:37:37;3.85;;;2.92;;
12332;SDS011;6232;48.094;11.288;2023-05-20T13:40:23;3.00;;;2.17;;
12332;SDS011;6232;48.094;11.288;2023-05-20T13:43:08;2.70;;;2.03;;
12332;SDS011;6232;48.094;11.288;2023-05-20T13:45:54;2.88;;;2.58;;
12332;SDS011;6232;48.094;11.288;2023-05-20T13:48:40;4.43;;;2.72;;
12332;SDS011;6232;48.094;11.288;2023-05-20T13:51:25;3.22;;;2.85;;
12332;SDS011;6232;48.094;11.288;2023-05-20T13:54:11;4.53;;;2.75;;
12332;SDS011;6232;48.094;11.288;2023-05-20T13:56:56;3.13;;;2.83;;
12332;SDS011;6232;48.094;11.288;2023-05-20T13:59:42;2.97;;;2.78;;
12332;SDS011;6232;48.094;11.288;2023-05-20T14:02:27;4.60;;;4.20;;
12332;SDS011;6232;48.094;11.288;2023-05-20T14:05:13;6.47;;;4.20;;
12332;SDS011;6232;48.094;11.288;2023-05-20T14:07:59;7.27;;;5.07;;
12332;SDS011;6232;48.094;11.288;2023-05-20T14:10:44;6.20;;;5.10;;
12332;SDS011;6232;48.094;11.288;2023-05-20T14:13:30;12.00;;;5.63;;
12332;SDS011;6232;48.094;11.288;2023-05-20T14:16:16;8.20;;;5.10;;
12332;SDS011;6232;48.094;11.288;2023-05-20T14:19:01;5.70;;;5.20;;
12332;SDS011;6232;48.094;11.288;2023-05-20T14:21:47;6.30;;;5.70;;
12332;SDS011;6232;48.094;11.288;2023-05-20T14:24:32;9.87;;;6.83;;
12332;SDS011;6232;48.094;11.288;2023-05-20T14:27:18;10.80;;;5.80;;
12332;SDS011;6232;48.094;11.288;2023-05-20T14:30:04;5.87;;;5.27;;
12332;SDS011;6232;48.094;11.288;2023-05-20T14:32:49;7.07;;;5.83;;
12332;SDS011;6232;48.094;11.288;2023-05-20T14:35:35;6.00;;;5.40;;
12332;SDS011;6232;48.094;11.288;2023-05-20T14:38:21;9.27;;;5.57;;
12332;SDS011;6232;48.094;11.288;2023-05-20T14:41:06;6.03;;;5.40;;
12332;SDS011;6232;48.094;11.288;2023-05-20T14:43:52;7.17;;;5.90;;
12332;SDS011;6232;48.094;11.288;2023-05-20T14:46:37;9.23;;;5.90;;
12332;SDS011;6232;48.094;11.288;2023-05-20T14:49:23;6.07;;;5.47;;
12332;SDS011;6232;48.094;11.288;2023-05-20T14:52:08;5.10;;;4.47;;
12332;SDS011;6232;48.094;11.288;2023-05-20T14:54:54;12.27;;;7.43;;
12332;SDS011;6232;48.094;11.288;2023-05-20T14:57:40;7.90;;;5.67;;
12332;SDS011;6232;48.094;11.288;2023-05-20T15:00:26;8.70;;;5.97;;
12332;SDS011;6232;48.094;11.288;2023-05-20T15:03:12;7.33;;;6.03;;
12332;SDS011;6232;48.094;11.288;2023-05-20T15:05:57;6.03;;;5.43;;
12332;SDS011;6232;48.094;11.288;2023-05-20T15:08:43;8.30;;;7.40;;
12332;SDS011;6232;48.094;11.288;2023-05-20T15:11:28;8.60;;;6.80;;
12332;SDS011;6232;48.094;11.288;2023-05-20T15:14:14;8.23;;;7.03;;
12332;SDS011;6232;48.094;11.288;2023-05-20T15:16:59;9.73;;;6.60;;
12332;SDS011;6232;48.094;11.288;2023-05-20T15:19:45;14.20;;;6.50;;
12332;SDS011;6232;48.094;11.288;2023-05-20T15:22:30;6.67;;;5.97;;
12332;SDS011;6232;48.094;11.288;2023-05-20T15:25:16;7.43;;;6.67;;
12332;SDS011;6232;48.094;11.288;2023-05-20T15:28:01;10.30;;;7.00;;
12332;SDS011;6232;48.094;11.288;2023-05-20T15:30:50;9.53;;;7.53;;
12332;SDS011;6232;48.094;11.288;2023-05-20T15:33:36;8.60;;;7.30;;
12332;SDS011;6232;48.094;11.288;2023-05-20T15:36:21;6.47;;;5.87;;
12332;SDS011;6232;48.094;11.288;2023-05-20T15:39:07;7.30;;;6.60;;
12332;SDS011;6232;48.094;11.288;2023-05-20T15:41:53;10.63;;;6.60;;
12332;SDS011;6232;48.094;11.288;2023-05-20T15:44:38;11.30;;;6.37;;
12332;SDS011;6232;48.094;11.288;2023-05-20T15:47:24;8.30;;;6.73;;
12332;SDS011;6232;48.094;11.288;2023-05-20T15:50:10;8.20;;;7.00;;
12332;SDS011;6232;48.094;11.288;2023-05-20T15:52:56;8.63;;;7.10;;
12332;SDS011;6232;48.094;11.288;2023-05-20T15:55:41;9.77;;;8.10;;
12332;SDS011;6232;48.094;11.288;2023-05-20T15:58:27;11.53;;;8.40;;
12332;SDS011;6232;48.094;11.288;2023-05-20T16:01:13;8.30;;;7.37;;
12332;SDS011;6232;48.094;11.288;2023-05-20T16:03:58;8.83;;;7.13;;
12332;SDS011;6232;48.094;11.288;2023-05-20T16:06:44;8.87;;;7.50;;
12332;SDS011;6232;48.094;11.288;2023-05-20T16:09:29;10.10;;;7.00;;
12332;SDS011;6232;48.094;11.288;2023-05-20T16:12:15;8.00;;;6.67;;
12332;SDS011;6232;48.094;11.288;2023-05-20T16:15:01;12.00;;;7.70;;
12332;SDS011;6232;48.094;11.288;2023-05-20T16:17:46;11.30;;;7.63;;
12332;SDS011;6232;48.094;11.288;2023-05-20T16:20:32;11.67;;;7.13;;
12332;SDS011;6232;48.094;11.288;2023-05-20T16:23:17;7.83;;;6.80;;
12332;SDS011;6232;48.094;11.288;2023-05-20T16:26:03;8.43;;;7.53;;
12332;SDS011;6232;48.094;11.288;2023-05-20T16:28:48;6.67;;;6.03;;
12332;SDS011;6232;48.094;11.288;2023-05-20T16:31:34;8.70;;;7.40;;
12332;SDS011;6232;48.094;11.288;2023-05-20T16:34:20;11.53;;;7.43;;
12332;SDS011;6232;48.094;11.288;2023-05-20T16:37:05;11.17;;;7.43;;
12332;SDS011;6232;48.094;11.288;2023-05-20T16:39:51;8.33;;;7.13;;
12332;SDS011;6232;48.094;11.288;2023-05-20T16:42:36;9.60;;;7.43;;
12332;SDS011;6232;48.094;11.288;2023-05-20T16:45:23;8.40;;;7.10;;